Impacts METAR Board INFO
IDs:

KSFO - San Francisco Intl, CA, US

Updated at: 1154 UTC 18 Jan 2018
Potential Impact None Slight Moderate High
Time17/23Z 18/00Z 18/01Z 18/02Z 18/03Z 18/04Z 18/05Z 18/06Z 18/07Z 18/08Z 18/09Z 18/10Z 18/11Z
VIS7 7 6 5 5 5 6 0.5 1 0.75 6 3 5
CIG150 150 150 150 -- -- -- 3 3 3 -- 28 5
CoverBKNBKNBKNBKNSCTFEWFEWBKNOVCOVCSCTBKNOVC
FltCatVFRVFRVFRMVFRMVFRMVFRVFRLIFRLIFRLIFRVFRMVFRIFR
WX----BRBRBRBRBRBRBRBRBRBRBR
WDir90403503603501703401000240340150
WSpd4 4 7 6 6 3 5 3 0 0 4 4 5
WGst-- -- -- -- -- -- -- -- -- -- -- -- --
Raw hourly METARs
KSFO 172256Z 09004KT 7SM BKN150 14/11 A3019 RMK AO2 SLP221 T01390111
KSFO 172356Z 04004KT 7SM BKN150 14/11 A3018 RMK AO2 SLP220 T01390111 10144 20128 56013
KSFO 180056Z 35007KT 6SM BR BKN150 13/11 A3018 RMK AO2 SLP221 T01330111
KSFO 180156Z 36006KT 5SM BR BKN150 13/11 A3018 RMK AO2 SLP220 T01330111
KSFO 180256Z 35006KT 5SM BR SCT150 13/11 A3016 RMK AO2 SLP214 T01280111 58006
KSFO 180356Z 17003KT 5SM BR FEW150 12/11 A3015 RMK AO2 SLP210 T01220111
KSFO 180456Z 34005KT 6SM BR FEW017 FEW150 12/11 A3017 RMK AO2 SLP215 T01220106
KSFO 180602Z 01003KT 1/2SM R28R/4500VP6000FT BR BKN003 BKN006 12/11 A3017 RMK AO2 SFC VIS 1 T01170106
KSFO 180656Z 00000KT 1SM R28R/4500VP6000FT BR BKN003 OVC006 11/11 A3019 RMK AO2 SLP222 T01110106
KSFO 180756Z 00000KT 3/4SM R28R/2000VP6000FT BR BKN003 OVC006 11/11 A3017 RMK AO2 SLP216 T01110106 401440111
KSFO 180856Z 24004KT 6SM BR FEW005 SCT008 11/10 A3017 RMK AO2 SLP215 T01060100 58000
KSFO 180956Z 34004KT 3SM BR SCT003 BKN028 11/10 A3017 RMK AO2 SLP215 T01110100
KSFO 181056Z 15005KT 5SM BR SCT003 BKN005 OVC008 11/09 A3014 RMK AO2 SLP206 T01060094